sensor_id;sensor_type;location;lat;lon;timestamp;P1;durP1;ratioP1;P2;durP2;ratioP2
51288;SDS011;37372;52.294;5.152;2022-12-18T00:02:13;82.38;;;34.25;;
51288;SDS011;37372;52.294;5.152;2022-12-18T00:04:38;109.20;;;39.95;;
51288;SDS011;37372;52.294;5.152;2022-12-18T00:07:04;139.85;;;47.40;;
51288;SDS011;37372;52.294;5.152;2022-12-18T00:09:29;96.47;;;36.78;;
51288;SDS011;37372;52.294;5.152;2022-12-18T00:11:54;99.68;;;37.03;;
51288;SDS011;37372;52.294;5.152;2022-12-18T00:14:20;92.22;;;33.63;;
51288;SDS011;37372;52.294;5.152;2022-12-18T00:16:45;85.63;;;33.13;;
51288;SDS011;37372;52.294;5.152;2022-12-18T00:19:12;96.38;;;35.83;;
51288;SDS011;37372;52.294;5.152;2022-12-18T00:21:41;87.95;;;30.50;;
51288;SDS011;37372;52.294;5.152;2022-12-18T00:24:07;84.38;;;32.45;;
51288;SDS011;37372;52.294;5.152;2022-12-18T00:26:33;85.63;;;37.53;;
51288;SDS011;37372;52.294;5.152;2022-12-18T00:29:00;80.22;;;31.15;;
51288;SDS011;37372;52.294;5.152;2022-12-18T00:31:27;85.63;;;33.55;;
51288;SDS011;37372;52.294;5.152;2022-12-18T00:33:54;79.18;;;32.28;;
51288;SDS011;37372;52.294;5.152;2022-12-18T00:36:31;72.50;;;31.55;;
51288;SDS011;37372;52.294;5.152;2022-12-18T00:38:58;81.45;;;29.58;;
51288;SDS011;37372;52.294;5.152;2022-12-18T00:41:25;82.60;;;29.88;;
51288;SDS011;37372;52.294;5.152;2022-12-18T00:44:23;75.85;;;29.20;;
51288;SDS011;37372;52.294;5.152;2022-12-18T00:46:49;70.53;;;30.75;;
51288;SDS011;37372;52.294;5.152;2022-12-18T00:49:16;77.07;;;31.63;;
51288;SDS011;37372;52.294;5.152;2022-12-18T00:51:42;75.07;;;26.42;;
51288;SDS011;37372;52.294;5.152;2022-12-18T00:54:08;74.72;;;28.58;;
51288;SDS011;37372;52.294;5.152;2022-12-18T00:56:34;83.13;;;29.58;;
51288;SDS011;37372;52.294;5.152;2022-12-18T00:59:00;78.38;;;30.95;;
51288;SDS011;37372;52.294;5.152;2022-12-18T01:01:26;74.20;;;27.80;;
51288;SDS011;37372;52.294;5.152;2022-12-18T01:03:51;74.88;;;27.13;;
51288;SDS011;37372;52.294;5.152;2022-12-18T01:06:17;73.55;;;26.75;;
51288;SDS011;37372;52.294;5.152;2022-12-18T01:08:42;73.05;;;24.98;;
51288;SDS011;37372;52.294;5.152;2022-12-18T01:11:08;73.97;;;27.00;;
51288;SDS011;37372;52.294;5.152;2022-12-18T01:13:39;67.88;;;26.75;;
51288;SDS011;37372;52.294;5.152;2022-12-18T01:16:05;67.38;;;25.35;;
51288;SDS011;37372;52.294;5.152;2022-12-18T01:18:30;58.90;;;26.48;;
51288;SDS011;37372;52.294;5.152;2022-12-18T01:20:56;68.63;;;25.13;;
51288;SDS011;37372;52.294;5.152;2022-12-18T01:23:21;78.03;;;28.30;;
51288;SDS011;37372;52.294;5.152;2022-12-18T01:25:47;77.97;;;27.48;;
51288;SDS011;37372;52.294;5.152;2022-12-18T01:28:12;64.93;;;27.08;;
51288;SDS011;37372;52.294;5.152;2022-12-18T01:30:38;70.75;;;27.60;;
51288;SDS011;37372;52.294;5.152;2022-12-18T01:33:04;64.13;;;26.70;;
51288;SDS011;37372;52.294;5.152;2022-12-18T01:35:30;63.05;;;26.02;;
51288;SDS011;37372;52.294;5.152;2022-12-18T01:37:56;60.53;;;23.80;;
51288;SDS011;37372;52.294;5.152;2022-12-18T01:40:22;68.03;;;26.50;;
51288;SDS011;37372;52.294;5.152;2022-12-18T01:42:51;68.13;;;26.70;;
51288;SDS011;37372;52.294;5.152;2022-12-18T01:45:21;67.03;;;25.83;;
51288;SDS011;37372;52.294;5.152;2022-12-18T01:47:53;72.22;;;28.35;;
51288;SDS011;37372;52.294;5.152;2022-12-18T01:50:40;68.15;;;25.33;;
51288;SDS011;37372;52.294;5.152;2022-12-18T01:55:41;72.75;;;24.95;;
51288;SDS011;37372;52.294;5.152;2022-12-18T01:58:14;70.97;;;25.52;;
51288;SDS011;37372;52.294;5.152;2022-12-18T02:00:41;66.15;;;24.23;;
51288;SDS011;37372;52.294;5.152;2022-12-18T02:03:06;65.13;;;25.58;;
51288;SDS011;37372;52.294;5.152;2022-12-18T02:08:10;62.72;;;24.65;;
51288;SDS011;37372;52.294;5.152;2022-12-18T02:14:01;65.40;;;25.13;;
51288;SDS011;37372;52.294;5.152;2022-12-18T02:22:36;71.47;;;27.38;;
51288;SDS011;37372;52.294;5.152;2022-12-18T02:27:47;56.17;;;23.38;;
51288;SDS011;37372;52.294;5.152;2022-12-18T02:30:16;68.00;;;26.25;;
51288;SDS011;37372;52.294;5.152;2022-12-18T02:32:45;65.15;;;25.55;;
51288;SDS011;37372;52.294;5.152;2022-12-18T02:35:15;68.28;;;26.15;;
51288;SDS011;37372;52.294;5.152;2022-12-18T02:37:45;57.70;;;23.73;;
51288;SDS011;37372;52.294;5.152;2022-12-18T02:40:12;70.28;;;26.42;;
51288;SDS011;37372;52.294;5.152;2022-12-18T02:42:40;67.28;;;25.58;;
51288;SDS011;37372;52.294;5.152;2022-12-18T02:45:06;58.78;;;25.38;;
51288;SDS011;37372;52.294;5.152;2022-12-18T02:47:32;69.80;;;25.60;;
51288;SDS011;37372;52.294;5.152;2022-12-18T02:50:05;64.95;;;26.17;;
51288;SDS011;37372;52.294;5.152;2022-12-18T02:56:10;66.72;;;21.83;;
51288;SDS011;37372;52.294;5.152;2022-12-18T03:01:38;70.10;;;25.95;;
51288;SDS011;37372;52.294;5.152;2022-12-18T03:06:59;66.82;;;24.48;;
51288;SDS011;37372;52.294;5.152;2022-12-18T03:09:32;69.05;;;27.30;;
51288;SDS011;37372;52.294;5.152;2022-12-18T03:12:04;71.93;;;27.00;;
51288;SDS011;37372;52.294;5.152;2022-12-18T03:14:54;61.58;;;23.95;;
51288;SDS011;37372;52.294;5.152;2022-12-18T03:17:22;63.30;;;23.50;;
51288;SDS011;37372;52.294;5.152;2022-12-18T03:19:51;71.95;;;25.83;;
51288;SDS011;37372;52.294;5.152;2022-12-18T03:22:19;67.45;;;25.13;;
51288;SDS011;37372;52.294;5.152;2022-12-18T03:24:47;65.13;;;25.90;;
51288;SDS011;37372;52.294;5.152;2022-12-18T03:27:14;67.18;;;25.40;;
51288;SDS011;37372;52.294;5.152;2022-12-18T03:29:51;71.68;;;26.13;;
51288;SDS011;37372;52.294;5.152;2022-12-18T03:32:32;64.47;;;25.02;;
51288;SDS011;37372;52.294;5.152;2022-12-18T03:35:04;62.78;;;25.25;;
51288;SDS011;37372;52.294;5.152;2022-12-18T03:37:32;77.22;;;26.70;;
51288;SDS011;37372;52.294;5.152;2022-12-18T03:39:58;66.20;;;23.83;;
51288;SDS011;37372;52.294;5.152;2022-12-18T03:42:32;61.15;;;25.55;;
51288;SDS011;37372;52.294;5.152;2022-12-18T03:45:42;61.58;;;24.45;;
51288;SDS011;37372;52.294;5.152;2022-12-18T03:50:45;61.55;;;23.17;;
51288;SDS011;37372;52.294;5.152;2022-12-18T03:56:07;57.72;;;24.42;;
51288;SDS011;37372;52.294;5.152;2022-12-18T03:58:34;75.93;;;26.38;;
51288;SDS011;37372;52.294;5.152;2022-12-18T04:01:03;59.55;;;23.90;;
51288;SDS011;37372;52.294;5.152;2022-12-18T04:03:32;57.60;;;25.27;;
51288;SDS011;37372;52.294;5.152;2022-12-18T04:06:00;63.67;;;25.40;;
51288;SDS011;37372;52.294;5.152;2022-12-18T04:08:27;66.35;;;25.23;;
51288;SDS011;37372;52.294;5.152;2022-12-18T04:10:53;56.42;;;24.77;;
51288;SDS011;37372;52.294;5.152;2022-12-18T04:13:28;60.15;;;24.67;;
51288;SDS011;37372;52.294;5.152;2022-12-18T04:15:57;59.33;;;23.42;;
51288;SDS011;37372;52.294;5.152;2022-12-18T04:18:22;65.05;;;25.92;;
51288;SDS011;37372;52.294;5.152;2022-12-18T04:20:48;52.28;;;24.80;;
51288;SDS011;37372;52.294;5.152;2022-12-18T04:23:13;58.80;;;23.88;;
51288;SDS011;37372;52.294;5.152;2022-12-18T04:25:38;69.05;;;25.38;;
51288;SDS011;37372;52.294;5.152;2022-12-18T04:28:04;59.67;;;25.73;;
51288;SDS011;37372;52.294;5.152;2022-12-18T04:30:30;53.97;;;24.30;;
51288;SDS011;37372;52.294;5.152;2022-12-18T04:32:55;55.22;;;24.67;;
51288;SDS011;37372;52.294;5.152;2022-12-18T04:35:21;55.03;;;26.95;;
51288;SDS011;37372;52.294;5.152;2022-12-18T04:37:46;57.00;;;23.08;;
51288;SDS011;37372;52.294;5.152;2022-12-18T04:40:12;59.45;;;24.33;;
51288;SDS011;37372;52.294;5.152;2022-12-18T04:42:38;52.65;;;23.13;;
51288;SDS011;37372;52.294;5.152;2022-12-18T04:45:05;40.60;;;21.08;;
51288;SDS011;37372;52.294;5.152;2022-12-18T04:47:31;60.03;;;24.98;;
51288;SDS011;37372;52.294;5.152;2022-12-18T04:49:56;47.30;;;21.15;;
51288;SDS011;37372;52.294;5.152;2022-12-18T04:52:22;51.72;;;21.42;;
51288;SDS011;37372;52.294;5.152;2022-12-18T04:54:47;52.10;;;23.10;;
51288;SDS011;37372;52.294;5.152;2022-12-18T04:57:13;50.40;;;21.00;;
51288;SDS011;37372;52.294;5.152;2022-12-18T04:59:38;52.78;;;20.52;;
51288;SDS011;37372;52.294;5.152;2022-12-18T05:02:04;46.00;;;20.00;;
51288;SDS011;37372;52.294;5.152;2022-12-18T05:04:29;49.63;;;21.20;;
51288;SDS011;37372;52.294;5.152;2022-12-18T05:06:54;49.38;;;21.80;;
51288;SDS011;37372;52.294;5.152;2022-12-18T05:09:20;46.75;;;20.40;;
51288;SDS011;37372;52.294;5.152;2022-12-18T05:11:45;49.85;;;20.73;;
51288;SDS011;37372;52.294;5.152;2022-12-18T05:14:12;47.35;;;19.95;;
51288;SDS011;37372;52.294;5.152;2022-12-18T05:16:37;46.53;;;21.55;;
51288;SDS011;37372;52.294;5.152;2022-12-18T05:19:03;51.60;;;20.63;;
51288;SDS011;37372;52.294;5.152;2022-12-18T05:21:28;48.58;;;21.10;;
51288;SDS011;37372;52.294;5.152;2022-12-18T05:23:53;40.70;;;18.55;;
51288;SDS011;37372;52.294;5.152;2022-12-18T05:26:19;49.70;;;20.20;;
51288;SDS011;37372;52.294;5.152;2022-12-18T05:28:44;50.58;;;22.08;;
51288;SDS011;37372;52.294;5.152;2022-12-18T05:31:10;44.00;;;19.05;;
51288;SDS011;37372;52.294;5.152;2022-12-18T05:33:37;44.65;;;19.83;;
51288;SDS011;37372;52.294;5.152;2022-12-18T05:36:05;43.85;;;19.05;;
51288;SDS011;37372;52.294;5.152;2022-12-18T05:38:32;41.10;;;19.20;;
51288;SDS011;37372;52.294;5.152;2022-12-18T05:40:59;49.83;;;19.63;;
51288;SDS011;37372;52.294;5.152;2022-12-18T05:43:25;46.30;;;20.73;;
51288;SDS011;37372;52.294;5.152;2022-12-18T05:45:52;47.63;;;19.70;;
51288;SDS011;37372;52.294;5.152;2022-12-18T05:48:18;39.42;;;17.33;;
51288;SDS011;37372;52.294;5.152;2022-12-18T05:50:45;43.22;;;18.95;;
51288;SDS011;37372;52.294;5.152;2022-12-18T05:53:13;41.65;;;18.35;;
51288;SDS011;37372;52.294;5.152;2022-12-18T05:55:40;44.47;;;19.15;;
51288;SDS011;37372;52.294;5.152;2022-12-18T05:58:07;50.03;;;18.63;;
51288;SDS011;37372;52.294;5.152;2022-12-18T06:00:34;41.17;;;19.08;;
51288;SDS011;37372;52.294;5.152;2022-12-18T06:03:04;43.25;;;17.50;;
51288;SDS011;37372;52.294;5.152;2022-12-18T06:05:34;35.28;;;15.93;;
51288;SDS011;37372;52.294;5.152;2022-12-18T06:08:01;46.58;;;19.42;;
51288;SDS011;37372;52.294;5.152;2022-12-18T06:10:27;35.33;;;17.35;;
51288;SDS011;37372;52.294;5.152;2022-12-18T06:12:52;40.15;;;15.65;;
51288;SDS011;37372;52.294;5.152;2022-12-18T06:15:17;38.58;;;16.27;;
51288;SDS011;37372;52.294;5.152;2022-12-18T06:17:43;37.35;;;16.42;;
51288;SDS011;37372;52.294;5.152;2022-12-18T06:20:08;35.53;;;15.57;;
51288;SDS011;37372;52.294;5.152;2022-12-18T06:22:34;39.83;;;16.33;;
51288;SDS011;37372;52.294;5.152;2022-12-18T06:25:00;39.00;;;17.90;;
51288;SDS011;37372;52.294;5.152;2022-12-18T06:27:25;30.65;;;15.13;;
51288;SDS011;37372;52.294;5.152;2022-12-18T06:29:50;34.08;;;15.35;;
51288;SDS011;37372;52.294;5.152;2022-12-18T06:32:16;33.50;;;15.18;;
51288;SDS011;37372;52.294;5.152;2022-12-18T06:34:41;37.40;;;15.45;;
51288;SDS011;37372;52.294;5.152;2022-12-18T06:37:07;33.65;;;15.68;;
51288;SDS011;37372;52.294;5.152;2022-12-18T06:39:32;33.90;;;14.55;;
51288;SDS011;37372;52.294;5.152;2022-12-18T06:41:57;31.17;;;15.95;;
51288;SDS011;37372;52.294;5.152;2022-12-18T06:44:23;34.30;;;14.10;;
51288;SDS011;37372;52.294;5.152;2022-12-18T06:46:48;29.65;;;15.68;;
51288;SDS011;37372;52.294;5.152;2022-12-18T06:49:13;38.05;;;16.55;;
51288;SDS011;37372;52.294;5.152;2022-12-18T06:51:40;37.58;;;15.68;;
51288;SDS011;37372;52.294;5.152;2022-12-18T06:54:07;32.70;;;14.98;;
51288;SDS011;37372;52.294;5.152;2022-12-18T06:56:33;33.63;;;15.35;;
51288;SDS011;37372;52.294;5.152;2022-12-18T06:58:58;29.42;;;14.02;;
51288;SDS011;37372;52.294;5.152;2022-12-18T07:01:23;28.95;;;13.65;;
51288;SDS011;37372;52.294;5.152;2022-12-18T07:03:55;26.98;;;13.35;;
51288;SDS011;37372;52.294;5.152;2022-12-18T07:06:22;30.38;;;14.55;;
51288;SDS011;37372;52.294;5.152;2022-12-18T07:08:49;32.33;;;14.02;;
51288;SDS011;37372;52.294;5.152;2022-12-18T07:11:16;32.08;;;15.30;;
51288;SDS011;37372;52.294;5.152;2022-12-18T07:13:42;30.25;;;14.65;;
51288;SDS011;37372;52.294;5.152;2022-12-18T07:16:10;28.60;;;15.13;;
51288;SDS011;37372;52.294;5.152;2022-12-18T07:18:38;27.45;;;13.45;;
51288;SDS011;37372;52.294;5.152;2022-12-18T07:21:08;26.55;;;13.55;;
51288;SDS011;37372;52.294;5.152;2022-12-18T07:23:35;26.90;;;13.85;;
51288;SDS011;37372;52.294;5.152;2022-12-18T07:26:02;33.40;;;15.52;;
51288;SDS011;37372;52.294;5.152;2022-12-18T07:28:32;29.30;;;14.48;;
51288;SDS011;37372;52.294;5.152;2022-12-18T07:31:02;33.55;;;14.90;;
51288;SDS011;37372;52.294;5.152;2022-12-18T07:33:47;28.38;;;14.35;;
51288;SDS011;37372;52.294;5.152;2022-12-18T07:36:13;24.73;;;12.80;;
51288;SDS011;37372;52.294;5.152;2022-12-18T07:38:39;28.02;;;13.52;;
51288;SDS011;37372;52.294;5.152;2022-12-18T07:41:10;26.02;;;12.57;;
51288;SDS011;37372;52.294;5.152;2022-12-18T07:43:37;28.15;;;13.75;;
51288;SDS011;37372;52.294;5.152;2022-12-18T07:46:03;31.52;;;14.60;;
51288;SDS011;37372;52.294;5.152;2022-12-18T07:48:29;34.10;;;13.68;;
51288;SDS011;37372;52.294;5.152;2022-12-18T07:50:59;22.73;;;12.02;;
51288;SDS011;37372;52.294;5.152;2022-12-18T07:53:25;24.60;;;13.95;;
51288;SDS011;37372;52.294;5.152;2022-12-18T07:55:54;29.73;;;14.23;;
51288;SDS011;37372;52.294;5.152;2022-12-18T07:58:23;28.73;;;12.80;;
51288;SDS011;37372;52.294;5.152;2022-12-18T08:00:49;26.52;;;12.35;;
51288;SDS011;37372;52.294;5.152;2022-12-18T08:03:15;25.42;;;12.15;;
51288;SDS011;37372;52.294;5.152;2022-12-18T08:05:40;29.25;;;13.30;;
51288;SDS011;37372;52.294;5.152;2022-12-18T08:08:05;26.38;;;13.20;;
51288;SDS011;37372;52.294;5.152;2022-12-18T08:10:31;26.50;;;13.07;;
51288;SDS011;37372;52.294;5.152;2022-12-18T08:12:57;31.05;;;13.20;;
51288;SDS011;37372;52.294;5.152;2022-12-18T08:15:22;25.85;;;13.18;;
51288;SDS011;37372;52.294;5.152;2022-12-18T08:17:47;26.45;;;13.73;;
51288;SDS011;37372;52.294;5.152;2022-12-18T08:20:13;29.23;;;14.07;;
51288;SDS011;37372;52.294;5.152;2022-12-18T08:22:40;24.92;;;14.38;;
51288;SDS011;37372;52.294;5.152;2022-12-18T08:25:06;29.05;;;14.40;;
51288;SDS011;37372;52.294;5.152;2022-12-18T08:27:32;24.08;;;12.55;;
51288;SDS011;37372;52.294;5.152;2022-12-18T08:29:58;26.23;;;13.55;;
51288;SDS011;37372;52.294;5.152;2022-12-18T08:32:24;25.80;;;13.15;;
51288;SDS011;37372;52.294;5.152;2022-12-18T08:34:50;29.33;;;14.55;;
51288;SDS011;37372;52.294;5.152;2022-12-18T08:37:16;26.48;;;13.57;;
51288;SDS011;37372;52.294;5.152;2022-12-18T08:39:41;29.65;;;14.15;;
51288;SDS011;37372;52.294;5.152;2022-12-18T08:42:06;25.35;;;13.63;;
51288;SDS011;37372;52.294;5.152;2022-12-18T08:44:50;25.00;;;13.15;;
51288;SDS011;37372;52.294;5.152;2022-12-18T08:47:16;27.50;;;14.13;;
51288;SDS011;37372;52.294;5.152;2022-12-18T08:49:41;23.58;;;13.23;;
51288;SDS011;37372;52.294;5.152;2022-12-18T08:52:07;23.98;;;13.55;;
51288;SDS011;37372;52.294;5.152;2022-12-18T08:54:32;28.75;;;14.25;;
51288;SDS011;37372;52.294;5.152;2022-12-18T08:56:58;27.40;;;13.57;;
51288;SDS011;37372;52.294;5.152;2022-12-18T08:59:23;30.65;;;14.73;;
51288;SDS011;37372;52.294;5.152;2022-12-18T09:01:48;26.45;;;13.88;;
51288;SDS011;37372;52.294;5.152;2022-12-18T09:04:14;26.40;;;12.55;;
51288;SDS011;37372;52.294;5.152;2022-12-18T09:06:39;27.65;;;14.70;;
51288;SDS011;37372;52.294;5.152;2022-12-18T09:09:05;24.08;;;12.75;;
51288;SDS011;37372;52.294;5.152;2022-12-18T09:11:31;24.73;;;13.82;;
51288;SDS011;37372;52.294;5.152;2022-12-18T09:13:57;29.08;;;14.25;;
51288;SDS011;37372;52.294;5.152;2022-12-18T09:16:25;26.05;;;13.13;;
51288;SDS011;37372;52.294;5.152;2022-12-18T09:18:51;31.52;;;15.68;;
51288;SDS011;37372;52.294;5.152;2022-12-18T09:21:17;28.38;;;13.77;;
51288;SDS011;37372;52.294;5.152;2022-12-18T09:23:49;29.38;;;13.68;;
51288;SDS011;37372;52.294;5.152;2022-12-18T09:26:15;24.35;;;13.00;;
51288;SDS011;37372;52.294;5.152;2022-12-18T09:28:41;27.67;;;15.07;;
51288;SDS011;37372;52.294;5.152;2022-12-18T09:31:07;29.67;;;13.85;;
51288;SDS011;37372;52.294;5.152;2022-12-18T09:33:34;26.92;;;14.48;;
51288;SDS011;37372;52.294;5.152;2022-12-18T09:36:01;26.88;;;14.07;;
51288;SDS011;37372;52.294;5.152;2022-12-18T09:38:28;26.48;;;13.65;;
51288;SDS011;37372;52.294;5.152;2022-12-18T09:40:54;26.02;;;13.93;;
51288;SDS011;37372;52.294;5.152;2022-12-18T09:43:26;26.52;;;15.30;;
51288;SDS011;37372;52.294;5.152;2022-12-18T09:46:03;27.92;;;13.20;;
51288;SDS011;37372;52.294;5.152;2022-12-18T09:48:35;24.52;;;13.32;;
51288;SDS011;37372;52.294;5.152;2022-12-18T09:51:12;31.02;;;14.40;;
51288;SDS011;37372;52.294;5.152;2022-12-18T09:53:44;28.40;;;13.77;;
51288;SDS011;37372;52.294;5.152;2022-12-18T09:56:16;26.10;;;13.37;;
51288;SDS011;37372;52.294;5.152;2022-12-18T09:59:03;24.80;;;13.25;;
51288;SDS011;37372;52.294;5.152;2022-12-18T10:01:29;24.25;;;13.60;;
51288;SDS011;37372;52.294;5.152;2022-12-18T10:03:56;24.88;;;13.15;;
51288;SDS011;37372;52.294;5.152;2022-12-18T10:06:26;24.27;;;13.80;;
51288;SDS011;37372;52.294;5.152;2022-12-18T10:09:18;22.75;;;13.00;;
51288;SDS011;37372;52.294;5.152;2022-12-18T10:12:29;23.33;;;13.40;;
51288;SDS011;37372;52.294;5.152;2022-12-18T10:14:50;22.65;;;13.18;;
51288;SDS011;37372;52.294;5.152;2022-12-18T10:20:05;21.70;;;14.18;;
51288;SDS011;37372;52.294;5.152;2022-12-18T10:25:25;20.23;;;12.32;;
51288;SDS011;37372;52.294;5.152;2022-12-18T10:27:57;24.77;;;13.77;;
51288;SDS011;37372;52.294;5.152;2022-12-18T10:30:42;21.75;;;12.57;;
51288;SDS011;37372;52.294;5.152;2022-12-18T10:33:18;20.77;;;12.30;;
51288;SDS011;37372;52.294;5.152;2022-12-18T10:35:46;25.58;;;12.30;;
51288;SDS011;37372;52.294;5.152;2022-12-18T10:43:28;23.55;;;13.35;;
51288;SDS011;37372;52.294;5.152;2022-12-18T10:48:25;22.05;;;11.40;;
51288;SDS011;37372;52.294;5.152;2022-12-18T10:50:52;21.73;;;12.23;;
51288;SDS011;37372;52.294;5.152;2022-12-18T10:53:22;22.35;;;13.98;;
51288;SDS011;37372;52.294;5.152;2022-12-18T10:55:50;25.02;;;12.98;;
51288;SDS011;37372;52.294;5.152;2022-12-18T10:58:26;23.25;;;12.10;;
51288;SDS011;37372;52.294;5.152;2022-12-18T11:01:07;20.23;;;12.48;;
51288;SDS011;37372;52.294;5.152;2022-12-18T11:03:40;21.55;;;11.77;;
51288;SDS011;37372;52.294;5.152;2022-12-18T11:06:14;18.83;;;11.13;;
51288;SDS011;37372;52.294;5.152;2022-12-18T11:08:46;22.35;;;11.98;;
51288;SDS011;37372;52.294;5.152;2022-12-18T11:11:23;21.25;;;11.10;;
51288;SDS011;37372;52.294;5.152;2022-12-18T11:14:06;23.45;;;11.20;;
51288;SDS011;37372;52.294;5.152;2022-12-18T11:16:45;22.70;;;12.93;;
51288;SDS011;37372;52.294;5.152;2022-12-18T11:21:44;22.73;;;11.65;;
51288;SDS011;37372;52.294;5.152;2022-12-18T11:24:20;18.08;;;10.13;;
51288;SDS011;37372;52.294;5.152;2022-12-18T11:27:03;20.67;;;12.00;;
51288;SDS011;37372;52.294;5.152;2022-12-18T11:29:31;18.63;;;11.18;;
51288;SDS011;37372;52.294;5.152;2022-12-18T11:34:55;35.83;;;18.85;;
51288;SDS011;37372;52.294;5.152;2022-12-18T11:37:26;32.58;;;17.10;;
51288;SDS011;37372;52.294;5.152;2022-12-18T11:39:58;28.38;;;16.40;;
51288;SDS011;37372;52.294;5.152;2022-12-18T11:50:50;26.55;;;15.40;;
51288;SDS011;37372;52.294;5.152;2022-12-18T11:53:18;28.92;;;17.75;;
51288;SDS011;37372;52.294;5.152;2022-12-18T12:01:14;25.00;;;12.85;;
51288;SDS011;37372;52.294;5.152;2022-12-18T12:06:41;22.92;;;11.05;;
51288;SDS011;37372;52.294;5.152;2022-12-18T12:17:36;21.10;;;12.63;;
51288;SDS011;37372;52.294;5.152;2022-12-18T12:20:18;21.60;;;11.70;;
51288;SDS011;37372;52.294;5.152;2022-12-18T12:25:52;23.52;;;12.27;;
51288;SDS011;37372;52.294;5.152;2022-12-18T12:31:03;22.33;;;13.35;;
51288;SDS011;37372;52.294;5.152;2022-12-18T12:33:47;24.60;;;12.95;;
51288;SDS011;37372;52.294;5.152;2022-12-18T12:39:18;27.85;;;16.65;;
51288;SDS011;37372;52.294;5.152;2022-12-18T12:41:48;25.13;;;14.23;;
51288;SDS011;37372;52.294;5.152;2022-12-18T12:44:34;22.27;;;12.57;;
51288;SDS011;37372;52.294;5.152;2022-12-18T12:47:07;32.13;;;17.45;;
51288;SDS011;37372;52.294;5.152;2022-12-18T12:49:44;32.42;;;15.80;;
51288;SDS011;37372;52.294;5.152;2022-12-18T12:52:15;24.45;;;14.30;;
51288;SDS011;37372;52.294;5.152;2022-12-18T12:54:47;27.08;;;13.80;;
51288;SDS011;37372;52.294;5.152;2022-12-18T12:59:46;22.17;;;11.85;;
51288;SDS011;37372;52.294;5.152;2022-12-18T13:04:56;22.10;;;13.15;;
51288;SDS011;37372;52.294;5.152;2022-12-18T13:16:04;18.17;;;11.55;;
51288;SDS011;37372;52.294;5.152;2022-12-18T13:18:31;21.58;;;12.15;;
51288;SDS011;37372;52.294;5.152;2022-12-18T13:31:01;21.65;;;12.55;;
51288;SDS011;37372;52.294;5.152;2022-12-18T13:36:03;23.20;;;12.15;;
51288;SDS011;37372;52.294;5.152;2022-12-18T13:38:42;22.70;;;12.98;;
51288;SDS011;37372;52.294;5.152;2022-12-18T13:43:56;20.05;;;11.57;;
51288;SDS011;37372;52.294;5.152;2022-12-18T13:46:57;20.88;;;11.32;;
51288;SDS011;37372;52.294;5.152;2022-12-18T13:51:53;28.65;;;12.90;;
51288;SDS011;37372;52.294;5.152;2022-12-18T13:54:24;43.75;;;21.58;;
51288;SDS011;37372;52.294;5.152;2022-12-18T14:00:16;29.92;;;17.45;;
51288;SDS011;37372;52.294;5.152;2022-12-18T14:06:04;26.67;;;13.65;;
51288;SDS011;37372;52.294;5.152;2022-12-18T14:08:34;36.15;;;19.63;;
51288;SDS011;37372;52.294;5.152;2022-12-18T14:11:03;31.73;;;15.00;;
51288;SDS011;37372;52.294;5.152;2022-12-18T14:13:41;26.83;;;14.00;;
51288;SDS011;37372;52.294;5.152;2022-12-18T14:16:07;23.73;;;14.23;;
51288;SDS011;37372;52.294;5.152;2022-12-18T14:21:17;26.70;;;14.43;;
51288;SDS011;37372;52.294;5.152;2022-12-18T14:23:48;26.35;;;14.32;;
51288;SDS011;37372;52.294;5.152;2022-12-18T14:28:54;20.85;;;11.90;;
51288;SDS011;37372;52.294;5.152;2022-12-18T14:31:24;25.15;;;12.98;;
51288;SDS011;37372;52.294;5.152;2022-12-18T14:33:51;22.15;;;12.68;;
51288;SDS011;37372;52.294;5.152;2022-12-18T14:36:19;26.80;;;13.05;;
51288;SDS011;37372;52.294;5.152;2022-12-18T14:38:52;25.90;;;12.85;;
51288;SDS011;37372;52.294;5.152;2022-12-18T14:41:19;26.63;;;13.48;;
51288;SDS011;37372;52.294;5.152;2022-12-18T14:43:47;25.75;;;12.38;;
51288;SDS011;37372;52.294;5.152;2022-12-18T14:49:02;21.83;;;12.00;;
51288;SDS011;37372;52.294;5.152;2022-12-18T14:52:04;47.30;;;22.88;;
51288;SDS011;37372;52.294;5.152;2022-12-18T14:54:31;31.38;;;17.33;;
51288;SDS011;37372;52.294;5.152;2022-12-18T14:57:11;23.27;;;13.23;;
51288;SDS011;37372;52.294;5.152;2022-12-18T15:00:03;30.83;;;13.65;;
51288;SDS011;37372;52.294;5.152;2022-12-18T15:05:06;22.58;;;11.95;;
51288;SDS011;37372;52.294;5.152;2022-12-18T15:07:44;22.40;;;11.48;;
51288;SDS011;37372;52.294;5.152;2022-12-18T15:10:33;23.88;;;13.05;;
51288;SDS011;37372;52.294;5.152;2022-12-18T15:18:04;27.70;;;14.30;;
51288;SDS011;37372;52.294;5.152;2022-12-18T15:20:32;22.77;;;13.10;;
51288;SDS011;37372;52.294;5.152;2022-12-18T15:23:03;22.65;;;11.43;;
51288;SDS011;37372;52.294;5.152;2022-12-18T15:25:32;27.50;;;13.73;;
51288;SDS011;37372;52.294;5.152;2022-12-18T15:28:02;24.48;;;13.98;;
51288;SDS011;37372;52.294;5.152;2022-12-18T15:30:28;26.63;;;16.50;;
51288;SDS011;37372;52.294;5.152;2022-12-18T15:33:17;26.60;;;15.00;;
51288;SDS011;37372;52.294;5.152;2022-12-18T15:35:56;22.63;;;12.88;;
51288;SDS011;37372;52.294;5.152;2022-12-18T15:38:26;23.30;;;13.90;;
51288;SDS011;37372;52.294;5.152;2022-12-18T15:40:52;23.83;;;12.88;;
51288;SDS011;37372;52.294;5.152;2022-12-18T15:43:20;25.73;;;12.57;;
51288;SDS011;37372;52.294;5.152;2022-12-18T15:48:28;24.33;;;13.05;;
51288;SDS011;37372;52.294;5.152;2022-12-18T15:50:55;21.15;;;12.90;;
51288;SDS011;37372;52.294;5.152;2022-12-18T15:53:22;32.35;;;14.38;;
51288;SDS011;37372;52.294;5.152;2022-12-18T15:55:49;27.63;;;14.98;;
51288;SDS011;37372;52.294;5.152;2022-12-18T15:58:33;25.58;;;13.65;;
51288;SDS011;37372;52.294;5.152;2022-12-18T16:00:59;24.48;;;13.18;;
51288;SDS011;37372;52.294;5.152;2022-12-18T16:03:25;27.30;;;13.05;;
51288;SDS011;37372;52.294;5.152;2022-12-18T16:05:51;24.50;;;13.60;;
51288;SDS011;37372;52.294;5.152;2022-12-18T16:08:16;24.33;;;12.95;;
51288;SDS011;37372;52.294;5.152;2022-12-18T16:10:42;25.60;;;12.88;;
51288;SDS011;37372;52.294;5.152;2022-12-18T16:13:11;21.02;;;12.13;;
51288;SDS011;37372;52.294;5.152;2022-12-18T16:15:40;32.17;;;14.52;;
51288;SDS011;37372;52.294;5.152;2022-12-18T16:18:06;25.85;;;12.93;;
51288;SDS011;37372;52.294;5.152;2022-12-18T16:20:31;30.23;;;13.75;;
51288;SDS011;37372;52.294;5.152;2022-12-18T16:22:56;22.70;;;14.13;;
51288;SDS011;37372;52.294;5.152;2022-12-18T16:25:23;28.42;;;14.18;;
51288;SDS011;37372;52.294;5.152;2022-12-18T16:27:51;26.52;;;14.23;;
51288;SDS011;37372;52.294;5.152;2022-12-18T16:30:21;26.65;;;14.18;;
51288;SDS011;37372;52.294;5.152;2022-12-18T16:32:48;26.45;;;12.98;;
51288;SDS011;37372;52.294;5.152;2022-12-18T16:35:14;23.85;;;13.02;;
51288;SDS011;37372;52.294;5.152;2022-12-18T16:37:40;35.78;;;18.23;;
51288;SDS011;37372;52.294;5.152;2022-12-18T16:40:07;29.05;;;16.90;;
51288;SDS011;37372;52.294;5.152;2022-12-18T16:42:34;31.77;;;16.80;;
51288;SDS011;37372;52.294;5.152;2022-12-18T16:45:01;28.65;;;15.18;;
51288;SDS011;37372;52.294;5.152;2022-12-18T16:47:26;28.65;;;15.05;;
51288;SDS011;37372;52.294;5.152;2022-12-18T16:49:51;31.50;;;15.27;;
51288;SDS011;37372;52.294;5.152;2022-12-18T16:52:18;23.92;;;13.38;;
51288;SDS011;37372;52.294;5.152;2022-12-18T16:54:44;27.88;;;13.50;;